This is the latest recevied weather packets stored in our database for station/object KY4GW. If no packets are shown the sender has not sent any weather packets the latest 10 day(s).
| Time | Temp. | Humidity | Pressure | Rain* | Wind** | Luminosity | Snow |
|---|---|---|---|---|---|---|---|
| 1777602056 | 7.78° C | 85% | 1018.6 hPa | 0 mm | - | 0 W/m² | - |
| 1777601756 | 7.78° C | 85% | 1018.6 hPa | 0 mm | - | 0 W/m² | - |
| 1777601452 | 7.78° C | 83% | 1018.6 hPa | 0 mm | - | 0 W/m² | - |
| 1777585666 | 15.56° C | 39% | 1017.6 hPa | 0 mm | - | 48 W/m² | - |
| 1777585056 | 15° C | 37% | 1017.9 hPa | 0 mm | - | 49 W/m² | - |
| 1777583542 | 16.11° C | 43% | 1018.3 hPa | 0 mm | - | 378 W/m² | - |
| 1777583241 | 15.56° C | 41% | 1018.3 hPa | 0 mm | - | 460 W/m² | - |
| 1777581722 | 15.56° C | 40% | 1018.3 hPa | 0 mm | - | 552 W/m² | - |
| 1777581421 | 15.56° C | 40% | 1018.3 hPa | 0 mm | - | 565 W/m² | - |
| 1777579298 | 15° C | 42% | 1019 hPa | 0 mm | - | 673 W/m² | - |
| 1777578689 | 14.44° C | 42% | 1019.3 hPa | 0 mm | - | 705 W/m² | - |
| 1777578388 | 15° C | 43% | 1019.3 hPa | 0 mm | - | 706 W/m² | - |
| 1777577780 | 15° C | 44% | 1019.3 hPa | 0 mm | - | 719 W/m² | - |
| 1777577476 | 14.44° C | 45% | 1019.3 hPa | 0 mm | - | 717 W/m² | - |
| 1777577173 | 14.44° C | 43% | 1019 hPa | 0 mm | - | 736 W/m² | - |
| 1777576869 | 14.44° C | 44% | 1019 hPa | 0 mm | - | 202 W/m² | - |
| 1777576568 | 14.44° C | 44% | 1019 hPa | 0 mm | - | 752 W/m² | - |
| 1777575961 | 13.89° C | 46% | 1019 hPa | 0 mm | - | 777 W/m² | - |
| 1777574139 | 13.89° C | 47% | 1019.3 hPa | 0 mm | - | 863 W/m² | - |
| 1777573535 | 13.89° C | 51% | 1019.3 hPa | 0 mm | - | 872 W/m² | - |
| 1777573232 | 13.89° C | 49% | 1019.3 hPa | 0 mm | - | 658 W/m² | - |
| 1777572928 | 13.33° C | 48% | 1019.6 hPa | 0 mm | - | 972 W/m² | - |
| 1777571109 | 13.33° C | 52% | 1019.3 hPa | 0 mm | - | 305 W/m² | - |
| 1777570501 | 13.33° C | 49% | 1019.3 hPa | 0 mm | - | 383 W/m² | - |
| 1777568982 | 12.78° C | 52% | 1020.1 hPa | 0 mm | - | 949 W/m² | - |
* Rain latest hour (hover to see other rain measurements)
** Current wind speed in m/s (hover to see current wind gust speed)